Time;durP1;ratioP1;P1;durP2;ratioP2;P2;SDS_P1;SDS_P2;PMS_P1;PMS_P2;Temp;Humidity;BMP_temperature;BMP_pressure;BME280_temperature;BME280_humidity;BME280_pressure;Samples;Min_cycle;Max_cycle;Signal;HPM_P1;HPM_P2
2022/08/18 00:01:46;;;;;;;;;;;16.50;99.90;;;;;;5155702;27;19907;-73
2022/08/18 00:04:11;;;;;;;;;;;16.50;99.90;;;;;;5156158;27;20280;-73
2022/08/18 00:06:38;;;;;;;;;;;16.60;99.90;;;;;;5155481;27;20002;-73
2022/08/18 00:09:05;;;;;;;;;;;16.60;99.90;;;;;;5155934;27;19903;-73
2022/08/18 00:11:33;;;;;;;;;;;16.60;99.90;;;;;;5155471;27;19911;-72
2022/08/18 00:13:59;;;;;;;;;;;16.50;99.90;;;;;;5156020;27;19954;-73
2022/08/18 00:16:24;;;;;;;;;;;16.60;99.90;;;;;;5136863;27;20311;-72
2022/08/18 00:18:50;;;;;;;;;;;16.60;99.90;;;;;;5155313;27;20300;-73
2022/08/18 00:21:16;;;;;;;;;;;16.60;99.90;;;;;;5155866;27;19903;-73
2022/08/18 00:23:42;;;;;;;;;;;16.50;99.90;;;;;;5155288;27;19990;-73
2022/08/18 00:26:07;;;;;;;;;;;16.50;99.90;;;;;;5156011;27;19946;-73
2022/08/18 00:28:33;;;;;;;;;;;16.50;99.90;;;;;;5136546;27;19907;-72
2022/08/18 00:30:59;;;;;;;;;;;16.50;99.90;;;;;;5155600;27;20344;-73
2022/08/18 00:33:25;;;;;;;;;;;16.50;99.90;;;;;;5154994;27;19903;-73
2022/08/18 00:35:50;;;;;;;;;;;16.50;99.90;;;;;;5155058;27;20343;-73
2022/08/18 00:38:16;;;;;;;;;;;16.50;99.90;;;;;;5155284;27;19903;-72
2022/08/18 00:40:43;;;;;;;;;;;16.50;99.90;;;;;;5154663;27;20014;-72
2022/08/18 00:43:14;;;;;;;;;;;16.50;99.90;;;;;;5155674;27;19903;-73
2022/08/18 00:45:41;;;;;;;;;;;16.40;99.90;;;;;;5154573;27;19954;-73
2022/08/18 00:48:09;;;;;;;;;;;16.40;99.90;;;;;;5155078;27;19994;-73
2022/08/18 00:50:53;;;;;;;;;;;16.40;99.90;;;;;;5154593;27;19910;-73
2022/08/18 00:53:26;;;;;;;;;;;16.30;99.90;;;;;;5154777;27;19917;-72
2022/08/18 00:55:52;;;;;;;;;;;16.30;99.90;;;;;;5155055;27;19911;-72
2022/08/18 00:58:21;;;;;;;;;;;16.20;99.90;;;;;;5155009;27;19926;-73
2022/08/18 01:00:49;;;;;;;;;;;16.20;99.90;;;;;;5154676;27;19926;-73
2022/08/18 01:03:16;;;;;;;;;;;16.20;99.90;;;;;;5155017;27;19907;-72
2022/08/18 01:05:47;;;;;;;;;;;16.10;99.90;;;;;;5154453;27;19982;-73
2022/08/18 01:08:14;;;;;;;;;;;16.10;99.90;;;;;;5154698;27;19910;-72
2022/08/18 01:10:40;;;;;;;;;;;16.00;99.90;;;;;;5154059;27;19910;-73
2022/08/18 01:13:06;;;;;;;;;;;16.00;99.90;;;;;;5154492;27;20259;-72
2022/08/18 01:15:31;;;;;;;;;;;15.90;99.90;;;;;;5154259;27;19910;-72
2022/08/18 01:23:37;;;;;;;;;;;15.70;99.90;;;;;;5154315;27;19952;-72
2022/08/18 01:26:03;;;;;;;;;;;15.60;99.90;;;;;;5154517;27;19907;-73
2022/08/18 01:28:34;;;;;;;;;;;15.60;99.90;;;;;;5154161;27;19903;-73
2022/08/18 01:31:00;;;;;;;;;;;15.60;99.90;;;;;;5155274;27;19953;-73
2022/08/18 01:33:31;;;;;;;;;;;15.60;99.90;;;;;;5135276;27;19907;-73
2022/08/18 01:36:09;;;;;;;;;;;15.60;99.90;;;;;;5154516;27;19904;-73
2022/08/18 01:38:34;;;;;;;;;;;15.60;99.90;;;;;;5153828;27;20017;-72
2022/08/18 01:41:00;;;;;;;;;;;15.60;99.90;;;;;;5154221;27;19998;-72
2022/08/18 01:43:25;;;;;;;;;;;15.60;99.90;;;;;;5154405;27;19917;-72
2022/08/18 01:45:51;;;;;;;;;;;15.70;99.90;;;;;;5135709;27;19986;-73
2022/08/18 01:48:17;;;;;;;;;;;15.70;99.90;;;;;;5154048;27;20316;-73
2022/08/18 01:50:44;;;;;;;;;;;15.70;99.90;;;;;;5153530;27;19910;-72
2022/08/18 01:53:10;;;;;;;;;;;15.80;99.90;;;;;;5154520;27;19971;-73
2022/08/18 01:55:37;;;;;;;;;;;15.90;99.90;;;;;;5153594;27;19903;-73
2022/08/18 01:58:04;;;;;;;;;;;15.90;99.90;;;;;;5154456;27;20259;-73
2022/08/18 02:00:31;;;;;;;;;;;16.00;99.90;;;;;;5153762;27;19911;-73
2022/08/18 02:02:57;;;;;;;;;;;16.10;99.90;;;;;;5154166;27;19946;-73
2022/08/18 02:05:34;;;;;;;;;;;16.10;99.90;;;;;;5154416;27;19952;-72
2022/08/18 02:08:00;;;;;;;;;;;16.20;99.90;;;;;;5154350;27;19910;-73
2022/08/18 02:10:26;;;;;;;;;;;16.20;99.90;;;;;;5154159;27;19903;-73
2022/08/18 02:12:51;;;;;;;;;;;16.20;99.90;;;;;;5153767;27;19903;-73
2022/08/18 02:15:17;;;;;;;;;;;16.20;99.90;;;;;;5154061;27;19910;-73
2022/08/18 02:17:44;;;;;;;;;;;16.20;99.90;;;;;;5153694;27;19939;-73
2022/08/18 02:20:13;;;;;;;;;;;16.20;99.90;;;;;;5154199;27;19994;-73
2022/08/18 02:22:39;;;;;;;;;;;16.20;99.90;;;;;;5156818;27;20041;-73
2022/08/18 02:25:05;;;;;;;;;;;16.20;99.90;;;;;;5157916;27;19918;-73
2022/08/18 02:27:31;;;;;;;;;;;16.30;99.90;;;;;;5157450;27;19903;-74
2022/08/18 02:29:58;;;;;;;;;;;16.20;99.90;;;;;;5157900;27;20345;-73
2022/08/18 02:32:23;;;;;;;;;;;16.20;99.90;;;;;;5157947;27;20371;-72
2022/08/18 02:34:49;;;;;;;;;;;16.20;99.90;;;;;;5156931;27;19942;-73
2022/08/18 02:37:14;;;;;;;;;;;16.20;99.90;;;;;;5157801;27;20347;-72
2022/08/18 02:39:40;;;;;;;;;;;16.20;99.90;;;;;;5156956;27;20263;-72
2022/08/18 02:42:06;;;;;;;;;;;16.20;99.90;;;;;;5157848;27;20312;-72
2022/08/18 02:44:32;;;;;;;;;;;16.20;99.90;;;;;;5157077;27;19950;-73
2022/08/18 02:46:58;;;;;;;;;;;16.10;99.90;;;;;;5157350;27;19918;-73
2022/08/18 02:49:24;;;;;;;;;;;16.00;99.90;;;;;;5157107;27;20005;-74
2022/08/18 02:51:50;;;;;;;;;;;16.00;99.90;;;;;;5156864;27;19907;-74
2022/08/18 02:54:17;;;;;;;;;;;16.00;99.90;;;;;;5157495;27;20378;-74
2022/08/18 02:56:44;;;;;;;;;;;16.00;99.90;;;;;;5156448;27;20359;-72
2022/08/18 02:59:12;;;;;;;;;;;16.00;99.90;;;;;;5157046;27;19911;-72
2022/08/18 03:01:39;;;;;;;;;;;16.00;99.90;;;;;;5156815;27;19907;-73
2022/08/18 03:04:05;;;;;;;;;;;16.00;99.90;;;;;;5157381;27;19903;-73
2022/08/18 03:06:31;;;;;;;;;;;15.90;99.90;;;;;;5156826;27;19956;-73
2022/08/18 03:08:57;;;;;;;;;;;15.80;99.90;;;;;;5138331;27;19903;-73
2022/08/18 03:11:24;;;;;;;;;;;15.80;99.90;;;;;;5157317;27;20255;-73
2022/08/18 03:13:50;;;;;;;;;;;15.80;99.90;;;;;;5156527;27;20366;-72
2022/08/18 03:16:16;;;;;;;;;;;15.80;99.90;;;;;;5157101;27;19903;-72
2022/08/18 03:18:43;;;;;;;;;;;15.70;99.90;;;;;;5156025;27;19918;-73
2022/08/18 03:21:10;;;;;;;;;;;15.80;99.90;;;;;;5156913;27;19942;-73
2022/08/18 03:23:39;;;;;;;;;;;15.80;99.90;;;;;;5156443;27;19903;-73
2022/08/18 03:26:04;;;;;;;;;;;15.80;99.90;;;;;;5156663;27;19915;-73
2022/08/18 03:28:30;;;;;;;;;;;15.80;99.90;;;;;;5156910;27;20297;-72
2022/08/18 03:30:56;;;;;;;;;;;15.80;99.90;;;;;;5156206;27;20239;-72
2022/08/18 03:33:21;;;;;;;;;;;15.70;99.90;;;;;;5156492;27;20363;-73
2022/08/18 03:35:47;;;;;;;;;;;15.70;99.90;;;;;;5156132;27;19942;-73
2022/08/18 03:38:12;;;;;;;;;;;15.70;99.90;;;;;;5156405;27;19907;-73
2022/08/18 03:40:38;;;;;;;;;;;15.60;99.90;;;;;;5155480;27;19915;-73
2022/08/18 03:43:05;;;;;;;;;;;15.60;99.90;;;;;;5157029;27;19963;-73
2022/08/18 03:45:31;;;;;;;;;;;15.60;99.90;;;;;;5138039;27;20289;-73
2022/08/18 03:47:59;;;;;;;;;;;15.60;99.90;;;;;;5155649;27;20357;-73
2022/08/18 03:50:25;;;;;;;;;;;15.60;99.90;;;;;;5156484;27;19954;-73
2022/08/18 03:52:51;;;;;;;;;;;15.70;99.90;;;;;;5137199;27;19910;-73
2022/08/18 03:55:17;;;;;;;;;;;15.70;99.90;;;;;;5156273;27;19903;-73
2022/08/18 03:57:44;;;;;;;;;;;15.70;99.90;;;;;;5155295;27;19903;-74
2022/08/18 04:00:11;;;;;;;;;;;15.70;99.90;;;;;;5155778;27;19914;-73
2022/08/18 04:02:37;;;;;;;;;;;15.80;99.90;;;;;;5155605;27;19914;-74
2022/08/18 04:05:03;;;;;;;;;;;15.80;99.90;;;;;;5156136;27;19903;-74
2022/08/18 04:07:29;;;;;;;;;;;15.80;99.90;;;;;;5156041;27;19910;-74
2022/08/18 04:09:54;;;;;;;;;;;15.80;99.90;;;;;;5155245;27;19997;-74
2022/08/18 04:12:20;;;;;;;;;;;15.90;99.90;;;;;;5156020;27;20374;-73
2022/08/18 04:14:47;;;;;;;;;;;15.90;99.90;;;;;;5155217;27;20001;-73
2022/08/18 04:17:13;;;;;;;;;;;15.90;99.90;;;;;;5155604;27;19914;-74
2022/08/18 04:19:39;;;;;;;;;;;16.00;99.90;;;;;;5155058;27;19907;-73
2022/08/18 04:22:04;;;;;;;;;;;16.00;99.90;;;;;;5155916;27;19952;-73
2022/08/18 04:24:31;;;;;;;;;;;16.00;99.90;;;;;;5155708;27;19907;-72
2022/08/18 04:26:58;;;;;;;;;;;16.00;99.90;;;;;;5154526;27;19903;-73
2022/08/18 04:29:23;;;;;;;;;;;16.00;99.90;;;;;;5155574;27;19952;-73
2022/08/18 04:31:50;;;;;;;;;;;16.10;99.90;;;;;;5154807;27;19903;-73
2022/08/18 04:34:16;;;;;;;;;;;16.10;99.90;;;;;;5155550;27;19994;-73
2022/08/18 04:36:42;;;;;;;;;;;16.10;99.90;;;;;;5154540;27;20300;-73
2022/08/18 04:39:09;;;;;;;;;;;16.10;99.90;;;;;;5155326;27;20002;-73
2022/08/18 04:41:36;;;;;;;;;;;16.10;99.90;;;;;;5155314;27;19922;-73
2022/08/18 04:44:03;;;;;;;;;;;16.10;99.90;;;;;;5154570;27;19903;-73
2022/08/18 04:46:29;;;;;;;;;;;16.10;99.90;;;;;;5154994;27;19990;-73
2022/08/18 04:48:59;;;;;;;;;;;16.10;99.90;;;;;;5154705;27;19939;-73
2022/08/18 04:51:28;;;;;;;;;;;16.10;99.90;;;;;;5154155;27;20134;-73
2022/08/18 04:53:55;;;;;;;;;;;16.10;99.90;;;;;;5154486;27;19913;-73
2022/08/18 04:56:24;;;;;;;;;;;16.10;99.90;;;;;;5136763;27;19907;-73
2022/08/18 04:58:51;;;;;;;;;;;16.10;99.90;;;;;;5153865;27;19956;-73
2022/08/18 05:01:21;;;;;;;;;;;16.10;99.90;;;;;;5155097;27;20006;-73
2022/08/18 05:03:48;;;;;;;;;;;16.10;99.90;;;;;;5154753;27;19910;-74
2022/08/18 05:06:13;;;;;;;;;;;16.10;99.90;;;;;;5155023;27;19907;-73
2022/08/18 05:08:39;;;;;;;;;;;16.10;99.90;;;;;;5155099;27;19904;-73
2022/08/18 05:11:05;;;;;;;;;;;16.10;99.90;;;;;;5154122;27;20022;-73
2022/08/18 05:13:30;;;;;;;;;;;16.10;99.90;;;;;;5154667;27;19903;-73
2022/08/18 05:16:02;;;;;;;;;;;16.10;99.90;;;;;;5154307;27;20337;-74
2022/08/18 05:18:28;;;;;;;;;;;16.10;99.90;;;;;;5154453;27;20294;-73
2022/08/18 05:20:54;;;;;;;;;;;16.00;99.90;;;;;;5153979;27;20309;-74
2022/08/18 05:23:20;;;;;;;;;;;16.00;99.90;;;;;;5154768;27;19986;-74
2022/08/18 05:25:46;;;;;;;;;;;16.00;99.90;;;;;;5154067;27;19903;-73
2022/08/18 05:28:13;;;;;;;;;;;16.00;99.90;;;;;;5154647;27;19903;-73
2022/08/18 05:30:39;;;;;;;;;;;16.00;99.90;;;;;;5154513;27;20351;-73
2022/08/18 05:33:05;;;;;;;;;;;15.90;99.90;;;;;;5153843;27;20235;-73
2022/08/18 05:35:43;;;;;;;;;;;15.90;99.90;;;;;;5154336;27;20001;-73
2022/08/18 05:38:12;;;;;;;;;;;15.90;99.90;;;;;;5136110;27;19903;-73
2022/08/18 05:40:38;;;;;;;;;;;15.90;99.90;;;;;;5154083;27;19907;-72
2022/08/18 05:43:04;;;;;;;;;;;15.90;99.90;;;;;;5153781;27;20320;-73
2022/08/18 05:45:29;;;;;;;;;;;15.90;99.90;;;;;;5135851;27;19950;-73
2022/08/18 05:47:58;;;;;;;;;;;15.90;99.90;;;;;;5153725;27;19903;-73
2022/08/18 05:50:25;;;;;;;;;;;15.90;99.90;;;;;;5154293;27;19907;-73
2022/08/18 05:52:53;;;;;;;;;;;16.00;99.90;;;;;;5153588;27;19903;-73
2022/08/18 05:58:23;;;;;;;;;;;16.00;99.90;;;;;;5158647;27;19921;-73
2022/08/18 06:00:54;;;;;;;;;;;16.00;99.90;;;;;;5157874;27;19911;-73
2022/08/18 06:03:46;;;;;;;;;;;16.00;99.90;;;;;;5158319;27;19907;-73
2022/08/18 06:06:14;;;;;;;;;;;16.10;99.90;;;;;;5154479;27;20336;-73
2022/08/18 06:08:42;;;;;;;;;;;16.10;99.90;;;;;;5158003;27;20351;-72
2022/08/18 06:11:08;;;;;;;;;;;16.10;99.90;;;;;;5158031;27;20366;-73
2022/08/18 06:13:41;;;;;;;;;;;16.10;99.90;;;;;;5158337;27;19907;-72
2022/08/18 06:16:09;;;;;;;;;;;16.10;99.90;;;;;;5157428;27;19911;-73
2022/08/18 06:18:53;;;;;;;;;;;16.10;99.90;;;;;;5157962;27;20341;-74
2022/08/18 06:21:40;;;;;;;;;;;16.10;99.90;;;;;;5158235;27;19911;-74
2022/08/18 06:24:26;;;;;;;;;;;16.20;99.90;;;;;;5157377;27;20347;-74
2022/08/18 06:26:57;;;;;;;;;;;16.20;99.90;;;;;;5157279;27;19903;-73
2022/08/18 06:29:38;;;;;;;;;;;16.20;99.90;;;;;;5157784;27;19907;-73
2022/08/18 06:32:04;;;;;;;;;;;16.30;99.90;;;;;;5157354;27;19953;-73
2022/08/18 06:34:56;;;;;;;;;;;16.40;99.90;;;;;;5157785;27;20313;-73
2022/08/18 06:37:27;;;;;;;;;;;16.40;99.90;;;;;;5125417;27;19903;-73
2022/08/18 06:39:53;;;;;;;;;;;16.40;99.90;;;;;;5157096;27;19911;-74
2022/08/18 06:42:20;;;;;;;;;;;16.50;99.90;;;;;;5157877;27;19921;-73
2022/08/18 06:44:50;;;;;;;;;;;16.50;99.90;;;;;;5157287;27;19946;-74
2022/08/18 06:47:16;;;;;;;;;;;16.60;99.90;;;;;;5157707;27;19910;-74
2022/08/18 06:49:47;;;;;;;;;;;16.60;99.90;;;;;;5157332;27;19915;-74
2022/08/18 06:52:33;;;;;;;;;;;16.70;99.90;;;;;;5157491;27;20386;-73
2022/08/18 06:55:12;;;;;;;;;;;16.70;99.90;;;;;;5156266;27;19907;-74
2022/08/18 06:57:51;;;;;;;;;;;16.80;99.90;;;;;;5157418;27;19903;-74
2022/08/18 07:00:16;;;;;;;;;;;16.80;99.90;;;;;;5157375;27;19911;-74
2022/08/18 07:02:48;;;;;;;;;;;16.90;99.90;;;;;;5156755;27;20489;-74
2022/08/18 07:05:14;;;;;;;;;;;16.90;99.90;;;;;;5156769;27;19907;-75
2022/08/18 07:07:40;;;;;;;;;;;17.00;99.90;;;;;;5156753;27;20002;-74
2022/08/18 07:10:12;;;;;;;;;;;17.10;99.90;;;;;;5156351;27;20002;-73
2022/08/18 07:12:37;;;;;;;;;;;17.10;99.90;;;;;;5156712;27;19968;-73
2022/08/18 07:15:04;;;;;;;;;;;17.30;99.90;;;;;;5156226;27;19914;-74
2022/08/18 07:17:32;;;;;;;;;;;17.40;99.90;;;;;;5138053;27;19938;-73
2022/08/18 07:19:59;;;;;;;;;;;17.60;99.90;;;;;;5155853;27;19914;-73
2022/08/18 07:22:25;;;;;;;;;;;17.70;99.90;;;;;;5156755;27;19903;-75
2022/08/18 07:24:53;;;;;;;;;;;17.80;99.90;;;;;;5137743;27;20329;-73
2022/08/18 07:27:39;;;;;;;;;;;17.90;99.90;;;;;;5138280;27;19951;-74
2022/08/18 07:30:10;;;;;;;;;;;18.00;99.90;;;;;;5155937;27;19914;-74
2022/08/18 07:32:46;;;;;;;;;;;18.10;99.90;;;;;;5156587;27;19910;-74
2022/08/18 07:35:14;;;;;;;;;;;18.00;99.90;;;;;;5137438;27;20241;-74
2022/08/18 07:38:07;;;;;;;;;;;17.90;99.90;;;;;;5156625;27;19998;-73
2022/08/18 07:40:43;;;;;;;;;;;17.90;99.90;;;;;;5124154;27;20276;-73
2022/08/18 07:43:14;;;;;;;;;;;17.90;99.90;;;;;;5155394;27;20017;-73
2022/08/18 07:45:41;;;;;;;;;;;17.90;99.90;;;;;;5156026;27;19904;-74
2022/08/18 07:48:18;;;;;;;;;;;17.90;99.90;;;;;;5155485;27;19909;-74
2022/08/18 07:50:52;;;;;;;;;;;18.00;99.90;;;;;;5155977;27;19930;-74
2022/08/18 07:53:36;;;;;;;;;;;18.00;99.90;;;;;;5156395;27;19909;-73
2022/08/18 07:56:04;;;;;;;;;;;18.00;99.90;;;;;;5155379;27;19911;-74
2022/08/18 07:58:36;;;;;;;;;;;18.10;99.90;;;;;;5155800;27;19986;-74
2022/08/18 08:01:10;;;;;;;;;;;18.10;99.90;;;;;;5155637;27;19968;-72
2022/08/18 08:03:47;;;;;;;;;;;18.00;99.90;;;;;;5156047;27;19926;-73
2022/08/18 08:06:12;;;;;;;;;;;18.00;99.90;;;;;;5155297;27;20188;-73
2022/08/18 08:08:42;;;;;;;;;;;18.00;99.90;;;;;;5155730;27;20396;-73
2022/08/18 08:11:08;;;;;;;;;;;18.00;99.90;;;;;;5155303;27;19903;-73
2022/08/18 08:13:33;;;;;;;;;;;18.00;99.90;;;;;;5155805;27;20336;-73
2022/08/18 08:15:59;;;;;;;;;;;18.00;99.90;;;;;;5155691;27;20340;-73
2022/08/18 08:18:34;;;;;;;;;;;18.00;99.90;;;;;;5155253;27;20343;-73
2022/08/18 08:21:10;;;;;;;;;;;18.10;99.90;;;;;;5154957;27;19918;-73
2022/08/18 08:23:38;;;;;;;;;;;18.00;99.90;;;;;;5156216;27;19911;-75
2022/08/18 08:26:25;;;;;;;;;;;18.00;99.90;;;;;;5154920;27;19907;-74
2022/08/18 08:28:57;;;;;;;;;;;18.10;99.90;;;;;;5156392;27;20003;-75
2022/08/18 08:31:25;;;;;;;;;;;18.10;99.90;;;;;;5156338;27;19908;-75
2022/08/18 08:33:54;;;;;;;;;;;18.20;99.90;;;;;;5155266;27;20233;-73
2022/08/18 08:36:26;;;;;;;;;;;18.20;99.90;;;;;;5156822;27;19915;-75
2022/08/18 08:38:54;;;;;;;;;;;18.30;99.90;;;;;;5155870;27;19903;-73
2022/08/18 08:41:24;;;;;;;;;;;18.40;99.90;;;;;;5137033;27;19915;-74
2022/08/18 08:44:04;;;;;;;;;;;18.40;99.90;;;;;;5155128;27;19903;-74
2022/08/18 08:46:42;;;;;;;;;;;18.50;99.90;;;;;;5136731;27;19903;-77
2022/08/18 08:49:21;;;;;;;;;;;18.60;99.90;;;;;;5135162;27;20365;-74
2022/08/18 08:51:49;;;;;;;;;;;18.70;99.90;;;;;;5154916;27;19903;-73
2022/08/18 08:54:35;;;;;;;;;;;18.80;99.90;;;;;;5154931;27;20517;-74
2022/08/18 08:57:01;;;;;;;;;;;18.90;99.90;;;;;;5111474;27;20335;-73
2022/08/18 08:59:26;;;;;;;;;;;19.00;99.90;;;;;;5154618;27;19932;-74
2022/08/18 09:02:00;;;;;;;;;;;19.10;99.90;;;;;;5137040;27;19946;-74
2022/08/18 09:04:38;;;;;;;;;;;19.20;99.90;;;;;;5136935;27;20028;-74
2022/08/18 09:07:04;;;;;;;;;;;19.20;99.90;;;;;;5136595;27;19914;-74
2022/08/18 09:09:35;;;;;;;;;;;19.30;99.90;;;;;;5155413;27;19911;-75
2022/08/18 09:12:24;;;;;;;;;;;19.30;99.90;;;;;;5136384;27;20387;-74
2022/08/18 09:14:49;;;;;;;;;;;19.30;99.90;;;;;;5119601;27;19903;-73
2022/08/18 09:17:16;;;;;;;;;;;19.30;99.90;;;;;;5154193;27;19986;-74
2022/08/18 09:19:57;;;;;;;;;;;19.30;99.90;;;;;;5154475;27;19936;-74
2022/08/18 09:22:43;;;;;;;;;;;19.40;99.90;;;;;;5135793;27;19903;-73
2022/08/18 09:25:10;;;;;;;;;;;19.40;99.90;;;;;;5053204;28;20372;-73
2022/08/18 09:27:43;;;;;;;;;;;19.40;99.90;;;;;;5054160;28;19915;-75
2022/08/18 09:30:27;;;;;;;;;;;19.40;99.90;;;;;;5070065;28;19928;-74
2022/08/18 09:33:00;;;;;;;;;;;19.40;99.90;;;;;;5071117;28;19977;-75
2022/08/18 09:35:25;;;;;;;;;;;19.50;99.90;;;;;;5070700;28;19911;-74
2022/08/18 09:44:08;;;;;;;;;;;20.00;99.90;;;;;;5070666;28;19974;-74
2022/08/18 09:46:40;;;;;;;;;;;20.10;99.90;;;;;;5070384;28;19938;-72
2022/08/18 09:49:26;;;;;;;;;;;20.10;99.90;;;;;;5070124;28;19904;-74
2022/08/18 09:51:56;;;;;;;;;;;20.20;99.90;;;;;;5071128;28;19905;-73
2022/08/18 09:54:23;;;;;;;;;;;20.20;99.90;;;;;;5070256;28;19958;-75
2022/08/18 09:56:48;;;;;;;;;;;20.20;99.90;;;;;;5070854;28;19999;-74
2022/08/18 09:59:32;;;;;;;;;;;20.20;99.90;;;;;;5053127;28;19995;-74
2022/08/18 10:02:05;;;;;;;;;;;20.20;99.90;;;;;;5102862;27;19907;-75
2022/08/18 10:04:47;;;;;;;;;;;20.30;99.90;;;;;;5154958;27;20249;-74
2022/08/18 10:07:33;;;;;;;;;;;20.40;99.90;;;;;;5136651;27;19950;-74
2022/08/18 10:10:09;;;;;;;;;;;20.40;99.90;;;;;;5154934;27;20228;-74
2022/08/18 10:13:01;;;;;;;;;;;20.40;99.90;;;;;;5154805;27;19909;-74
2022/08/18 10:15:29;;;;;;;;;;;20.50;99.90;;;;;;5121586;27;19911;-74
2022/08/18 10:18:01;;;;;;;;;;;20.50;99.90;;;;;;5154367;27;20289;-74
2022/08/18 10:20:31;;;;;;;;;;;20.60;99.90;;;;;;5153462;27;19972;-74
2022/08/18 10:22:57;;;;;;;;;;;20.60;99.90;;;;;;5154102;27;19964;-74
2022/08/18 10:25:49;;;;;;;;;;;20.70;99.90;;;;;;5153433;27;20401;-73
2022/08/18 10:28:33;;;;;;;;;;;20.70;99.90;;;;;;5149281;27;19903;-74
2022/08/18 10:31:03;;;;;;;;;;;20.80;99.90;;;;;;5154002;27;19910;-74
2022/08/18 10:33:49;;;;;;;;;;;20.90;99.90;;;;;;5154047;27;20006;-74
2022/08/18 10:36:31;;;;;;;;;;;21.00;99.90;;;;;;5138231;27;19903;-74
2022/08/18 10:38:57;;;;;;;;;;;21.20;99.90;;;;;;5153909;27;19904;-74
2022/08/18 10:41:24;;;;;;;;;;;21.30;99.90;;;;;;5153291;27;20367;-73
2022/08/18 10:43:51;;;;;;;;;;;21.40;99.90;;;;;;5156956;27;20334;-73
2022/08/18 10:46:20;;;;;;;;;;;21.50;99.90;;;;;;5156922;27;19903;-74
2022/08/18 10:48:56;;;;;;;;;;;21.60;99.90;;;;;;5157319;27;20362;-74
2022/08/18 10:51:26;;;;;;;;;;;21.60;99.90;;;;;;5157102;27;19991;-74
2022/08/18 10:54:02;;;;;;;;;;;21.60;99.90;;;;;;5157307;27;19903;-74
2022/08/18 10:56:42;;;;;;;;;;;21.60;99.90;;;;;;5156666;27;19958;-74
2022/08/18 10:59:26;;;;;;;;;;;21.60;99.90;;;;;;5156780;27;20316;-74
2022/08/18 11:02:08;;;;;;;;;;;21.60;99.90;;;;;;5157370;27;19939;-74
2022/08/18 11:04:36;;;;;;;;;;;21.60;99.90;;;;;;5157242;27;20412;-74
2022/08/18 11:07:05;;;;;;;;;;;21.60;99.90;;;;;;5157323;27;19910;-74
2022/08/18 11:09:31;;;;;;;;;;;21.60;99.90;;;;;;5156533;27;19903;-74
2022/08/18 11:11:58;;;;;;;;;;;21.50;99.90;;;;;;5156903;27;20267;-74
2022/08/18 11:14:39;;;;;;;;;;;21.50;99.90;;;;;;5156505;27;19911;-74
2022/08/18 11:17:10;;;;;;;;;;;21.50;99.90;;;;;;5156847;27;20300;-74
2022/08/18 11:19:37;;;;;;;;;;;21.50;99.90;;;;;;5156895;27;19956;-74
2022/08/18 11:22:02;;;;;;;;;;;21.50;99.90;;;;;;5157172;27;19909;-74
2022/08/18 11:24:34;;;;;;;;;;;21.40;99.90;;;;;;5156038;27;20316;-74
2022/08/18 11:27:04;;;;;;;;;;;21.40;99.90;;;;;;5157025;27;19990;-75
2022/08/18 11:29:34;;;;;;;;;;;21.40;99.90;;;;;;5156388;27;19904;-75
2022/08/18 11:32:03;;;;;;;;;;;21.40;99.90;;;;;;5156717;27;20343;-74
2022/08/18 11:34:34;;;;;;;;;;;21.30;99.90;;;;;;5156019;27;19903;-74
2022/08/18 11:37:02;;;;;;;;;;;21.30;99.90;;;;;;5156488;27;19962;-74
2022/08/18 11:39:28;;;;;;;;;;;21.30;99.90;;;;;;5155761;27;19921;-74
2022/08/18 11:41:54;;;;;;;;;;;21.20;99.90;;;;;;5156636;27;19952;-74
2022/08/18 11:44:23;;;;;;;;;;;21.20;99.90;;;;;;5155706;27;19907;-74
2022/08/18 11:46:53;;;;;;;;;;;21.20;99.90;;;;;;5156237;27;19910;-74
2022/08/18 11:49:25;;;;;;;;;;;21.20;99.90;;;;;;5155904;27;19907;-74
2022/08/18 11:51:54;;;;;;;;;;;21.20;99.90;;;;;;5137795;27;19903;-74
2022/08/18 11:54:20;;;;;;;;;;;21.20;99.90;;;;;;5154231;27;19907;-74
2022/08/18 11:56:46;;;;;;;;;;;21.20;99.90;;;;;;5156197;27;19948;-74
2022/08/18 11:59:24;;;;;;;;;;;21.40;99.90;;;;;;5155312;27;19911;-74
2022/08/18 12:01:51;;;;;;;;;;;21.40;99.90;;;;;;5156073;27;19926;-74
2022/08/18 12:04:30;;;;;;;;;;;21.40;99.90;;;;;;5155276;27;19963;-74
2022/08/18 12:07:14;;;;;;;;;;;21.40;99.90;;;;;;5155944;27;20300;-73
2022/08/18 12:09:45;;;;;;;;;;;21.40;99.90;;;;;;5137382;27;20271;-73
2022/08/18 12:12:24;;;;;;;;;;;21.50;99.90;;;;;;5154840;27;19903;-74
2022/08/18 12:14:58;;;;;;;;;;;21.50;99.90;;;;;;5155537;27;19948;-74
2022/08/18 12:17:25;;;;;;;;;;;21.50;99.90;;;;;;5154942;27;20318;-73
2022/08/18 12:19:51;;;;;;;;;;;21.40;99.90;;;;;;5154979;27;20379;-76
2022/08/18 12:22:18;;;;;;;;;;;21.40;99.90;;;;;;5154985;27;19986;-74
2022/08/18 12:24:45;;;;;;;;;;;21.30;99.90;;;;;;5155197;27;19926;-74
2022/08/18 12:27:13;;;;;;;;;;;21.30;99.90;;;;;;5155348;27;20347;-74
2022/08/18 12:29:39;;;;;;;;;;;21.30;99.90;;;;;;5155344;27;20263;-74
2022/08/18 12:32:04;;;;;;;;;;;21.30;99.90;;;;;;5155193;27;19903;-75
2022/08/18 12:34:30;;;;;;;;;;;21.40;99.90;;;;;;5154443;27;20104;-74
2022/08/18 12:36:56;;;;;;;;;;;21.40;99.90;;;;;;5154282;27;19914;-74
2022/08/18 12:39:22;;;;;;;;;;;21.40;99.90;;;;;;5148640;27;20002;-73
2022/08/18 12:41:48;;;;;;;;;;;21.30;99.90;;;;;;5154803;27;19922;-74
2022/08/18 12:44:14;;;;;;;;;;;21.30;99.90;;;;;;5153697;27;19907;-74
2022/08/18 12:46:40;;;;;;;;;;;21.30;99.90;;;;;;5135633;27;20406;-75
2022/08/18 12:49:09;;;;;;;;;;;21.40;99.90;;;;;;5154770;27;20003;-74
2022/08/18 12:51:35;;;;;;;;;;;21.40;99.90;;;;;;5154131;27;19952;-75
2022/08/18 12:54:00;;;;;;;;;;;21.40;99.90;;;;;;5154670;27;19903;-75
2022/08/18 12:56:30;;;;;;;;;;;21.40;99.90;;;;;;5154038;27;19968;-72
2022/08/18 12:58:57;;;;;;;;;;;21.40;99.90;;;;;;5154363;27;19987;-73
2022/08/18 13:01:23;;;;;;;;;;;21.40;99.90;;;;;;5154538;27;19910;-74
2022/08/18 13:03:50;;;;;;;;;;;21.40;99.90;;;;;;5155068;27;19903;-73
2022/08/18 13:06:15;;;;;;;;;;;21.40;99.90;;;;;;5153873;27;19903;-74
2022/08/18 13:08:41;;;;;;;;;;;21.50;99.90;;;;;;5136291;27;19903;-73
2022/08/18 13:11:10;;;;;;;;;;;21.60;99.90;;;;;;5154719;27;19951;-74
2022/08/18 13:13:37;;;;;;;;;;;21.80;99.90;;;;;;5154258;27;19943;-74
2022/08/18 13:16:04;;;;;;;;;;;21.90;99.90;;;;;;5154793;27;20232;-75
2022/08/18 13:18:29;;;;;;;;;;;22.00;99.90;;;;;;5153938;27;19903;-75
2022/08/18 13:20:56;;;;;;;;;;;22.10;99.90;;;;;;5154696;27;20297;-75
2022/08/18 13:23:22;;;;;;;;;;;22.20;99.90;;;;;;5153992;27;19903;-75
2022/08/18 13:25:47;;;;;;;;;;;22.30;99.90;;;;;;5154413;27;19909;-75
2022/08/18 13:28:13;;;;;;;;;;;22.40;99.90;;;;;;5154315;27;19903;-75
2022/08/18 13:30:38;;;;;;;;;;;22.60;99.90;;;;;;5135843;27;20363;-75
2022/08/18 13:33:04;;;;;;;;;;;22.70;99.90;;;;;;5154424;27;20359;-75
2022/08/18 13:35:29;;;;;;;;;;;22.80;99.90;;;;;;5153919;27;19903;-75
2022/08/18 13:37:55;;;;;;;;;;;22.90;99.90;;;;;;5154132;27;19910;-75
2022/08/18 13:40:21;;;;;;;;;;;23.00;99.90;;;;;;5153959;27;19956;-75
2022/08/18 13:42:47;;;;;;;;;;;23.10;99.90;;;;;;5153882;27;19921;-75
2022/08/18 13:45:14;;;;;;;;;;;23.20;99.90;;;;;;5154205;27;20395;-75
2022/08/18 13:47:41;;;;;;;;;;;23.20;99.90;;;;;;5154644;27;19956;-76
2022/08/18 13:50:06;;;;;;;;;;;23.20;99.90;;;;;;5154254;27;19911;-75
2022/08/18 13:52:32;;;;;;;;;;;23.20;99.90;;;;;;5153820;27;19903;-76
2022/08/18 13:54:58;;;;;;;;;;;23.20;99.90;;;;;;5154475;27;19946;-76
2022/08/18 13:57:23;;;;;;;;;;;23.30;99.90;;;;;;5153817;27;20344;-76
2022/08/18 13:59:49;;;;;;;;;;;23.40;99.90;;;;;;5154252;27;19911;-75
2022/08/18 14:02:14;;;;;;;;;;;23.40;99.90;;;;;;5154027;27;19903;-75
2022/08/18 14:04:40;;;;;;;;;;;23.50;99.90;;;;;;5154096;27;19903;-76
2022/08/18 14:07:08;;;;;;;;;;;23.60;99.90;;;;;;5154299;27;20350;-76
2022/08/18 14:09:34;;;;;;;;;;;23.60;99.90;;;;;;5153396;27;20289;-76
2022/08/18 14:12:01;;;;;;;;;;;23.60;99.90;;;;;;5153927;27;19944;-76
2022/08/18 14:14:26;;;;;;;;;;;23.60;99.90;;;;;;5153602;27;19998;-76
2022/08/18 14:16:52;;;;;;;;;;;23.70;99.90;;;;;;5154589;27;20296;-77
2022/08/18 14:27:33;;;;;;;;;;;23.60;99.90;;;;;;5157181;27;19910;-76
2022/08/18 14:30:00;;;;;;;;;;;23.60;99.90;;;;;;5157922;27;20232;-76
2022/08/18 14:32:26;;;;;;;;;;;23.60;99.90;;;;;;5157174;27;19903;-77
2022/08/18 14:34:52;;;;;;;;;;;23.50;99.90;;;;;;5157847;27;19990;-77
2022/08/18 14:37:18;;;;;;;;;;;23.60;99.90;;;;;;5156753;27;19953;-76
2022/08/18 14:39:44;;;;;;;;;;;23.60;99.90;;;;;;5139001;27;20367;-76
2022/08/18 14:42:13;;;;;;;;;;;23.60;99.90;;;;;;5156982;27;19961;-76
2022/08/18 14:44:38;;;;;;;;;;;23.60;99.90;;;;;;5156448;27;19911;-76
2022/08/18 14:47:04;;;;;;;;;;;23.70;99.90;;;;;;5156730;27;19958;-76
2022/08/18 14:49:30;;;;;;;;;;;23.80;99.90;;;;;;5156479;27;19903;-76
2022/08/18 14:51:57;;;;;;;;;;;24.00;99.90;;;;;;5156703;27;19910;-76